Time;durP1;ratioP1;P1;durP2;ratioP2;P2;SDS_P1;SDS_P2;PMS_P1;PMS_P2;Temp;Humidity;BMP_temperature;BMP_pressure;BME280_temperature;BME280_humidity;BME280_pressure;Samples;Min_cycle;Max_cycle;Signal;HPM_P1;HPM_P2
2023/04/06 00:02:33;;;;;;;;;;;17.10;55.70;;;;;;10009406;29;93443;-61
2023/04/06 00:07:35;;;;;;;;;;;17.10;55.60;;;;;;10009564;29;94386;-60
2023/04/06 00:12:37;;;;;;;;;;;17.10;55.60;;;;;;10008426;29;94540;-60
2023/04/06 00:17:39;;;;;;;;;;;17.10;55.70;;;;;;10008473;29;94450;-60
2023/04/06 00:22:41;;;;;;;;;;;17.10;55.50;;;;;;10009327;29;94156;-60
2023/04/06 00:27:42;;;;;;;;;;;17.10;55.50;;;;;;10015826;29;93772;-61
2023/04/06 00:32:44;;;;;;;;;;;17.10;55.50;;;;;;10015481;29;93591;-61
2023/04/06 00:37:46;;;;;;;;;;;17.10;55.50;;;;;;10015219;29;93572;-61
2023/04/06 00:42:47;;;;;;;;;;;17.00;55.40;;;;;;10013290;29;95811;-61
2023/04/06 00:47:49;;;;;;;;;;;17.00;56.30;;;;;;10014005;29;93530;-61
2023/04/06 00:52:51;;;;;;;;;;;17.00;55.30;;;;;;10015752;29;94579;-61
2023/04/06 00:57:53;;;;;;;;;;;17.00;55.20;;;;;;10013180;29;93812;-61
2023/04/06 01:02:55;;;;;;;;;;;17.00;55.30;;;;;;10015899;29;93887;-61
2023/04/06 01:07:57;;;;;;;;;;;17.00;55.10;;;;;;10014952;29;94638;-61
2023/04/06 01:12:58;;;;;;;;;;;17.00;55.20;;;;;;10013904;29;94514;-61
2023/04/06 01:18:00;;;;;;;;;;;16.90;55.10;;;;;;10013249;29;92724;-61
2023/04/06 01:23:02;;;;;;;;;;;16.90;55.00;;;;;;10014123;29;93534;-61
2023/04/06 01:28:04;;;;;;;;;;;16.90;55.10;;;;;;10013249;29;93328;-61
2023/04/06 01:33:06;;;;;;;;;;;16.90;55.00;;;;;;10011417;29;96620;-61
2023/04/06 01:38:08;;;;;;;;;;;16.90;55.00;;;;;;10013704;29;93645;-62
2023/04/06 01:43:10;;;;;;;;;;;16.90;55.00;;;;;;10012846;29;94126;-61
2023/04/06 01:48:11;;;;;;;;;;;16.90;55.00;;;;;;10012743;29;93472;-62
2023/04/06 01:53:14;;;;;;;;;;;16.80;54.80;;;;;;10013194;29;93473;-61
2023/04/06 01:58:16;;;;;;;;;;;16.80;54.90;;;;;;10012997;29;93486;-61
2023/04/06 02:03:18;;;;;;;;;;;16.80;54.90;;;;;;10012379;29;93585;-61
2023/04/06 02:08:19;;;;;;;;;;;16.80;54.80;;;;;;10013513;29;93734;-61
2023/04/06 02:13:21;;;;;;;;;;;16.80;54.90;;;;;;10012546;29;94308;-61
2023/04/06 02:18:23;;;;;;;;;;;16.80;54.90;;;;;;9995793;29;94602;-61
2023/04/06 02:23:25;;;;;;;;;;;16.80;54.90;;;;;;10008931;29;97018;-61
2023/04/06 02:28:27;;;;;;;;;;;16.80;54.90;;;;;;10013175;29;94827;-61
2023/04/06 02:33:29;;;;;;;;;;;16.70;54.80;;;;;;10011194;29;94587;-61
2023/04/06 02:38:31;;;;;;;;;;;16.70;54.70;;;;;;10011756;29;94377;-61
2023/04/06 02:43:32;;;;;;;;;;;16.70;54.60;;;;;;10009877;29;94449;-61
2023/04/06 02:48:36;;;;;;;;;;;16.70;54.60;;;;;;10009951;29;94938;-61
2023/04/06 02:53:37;;;;;;;;;;;16.70;54.60;;;;;;10010626;29;93733;-60
2023/04/06 02:58:41;;;;;;;;;;;16.70;54.40;;;;;;10010941;29;113079;-61
2023/04/06 03:03:43;;;;;;;;;;;16.70;54.40;;;;;;10010676;29;93404;-61
2023/04/06 03:08:45;;;;;;;;;;;16.70;54.40;;;;;;10010931;29;94620;-61
2023/04/06 03:13:46;;;;;;;;;;;16.70;54.40;;;;;;10008024;29;96878;-61
2023/04/06 03:18:48;;;;;;;;;;;16.70;54.30;;;;;;10010481;29;92684;-61
2023/04/06 03:23:50;;;;;;;;;;;16.70;54.30;;;;;;10009231;29;93512;-61
2023/04/06 03:28:52;;;;;;;;;;;16.60;54.20;;;;;;10009465;29;94359;-61
2023/04/06 03:33:54;;;;;;;;;;;16.60;54.30;;;;;;10008902;29;93508;-61
2023/04/06 03:38:56;;;;;;;;;;;16.60;54.20;;;;;;10008414;29;94350;-61
2023/04/06 03:43:57;;;;;;;;;;;16.60;54.30;;;;;;10009811;29;94753;-61
2023/04/06 05:07:47;;;;;;;;;;;17.00;54.00;;;;;;10170536;28;93444;-66
2023/04/06 05:12:49;;;;;;;;;;;17.10;53.90;;;;;;10151160;28;98110;-68
2023/04/06 05:17:51;;;;;;;;;;;17.10;53.80;;;;;;10152918;28;94550;-68
2023/04/06 05:22:53;;;;;;;;;;;17.10;53.80;;;;;;10170739;28;94584;-68
2023/04/06 05:27:55;;;;;;;;;;;17.10;53.80;;;;;;10170474;28;93463;-68
2023/04/06 05:32:56;;;;;;;;;;;17.10;53.80;;;;;;10169712;28;93536;-68
2023/04/06 05:37:58;;;;;;;;;;;17.10;53.80;;;;;;10154986;28;93148;-68
2023/04/06 05:43:00;;;;;;;;;;;17.00;53.80;;;;;;10152683;28;93612;-67
2023/04/06 05:48:02;;;;;;;;;;;17.00;55.30;;;;;;10166010;28;93547;-67
2023/04/06 05:53:04;;;;;;;;;;;17.00;55.50;;;;;;10169184;28;94805;-66
2023/04/06 05:58:05;;;;;;;;;;;17.00;55.50;;;;;;10169895;28;94004;-66
2023/04/06 06:03:08;;;;;;;;;;;17.00;55.80;;;;;;10166229;28;96815;-67
2023/04/06 06:08:10;;;;;;;;;;;17.00;56.10;;;;;;10168110;28;93670;-66
2023/04/06 06:13:11;;;;;;;;;;;17.10;58.10;;;;;;10168852;28;93281;-69
2023/04/06 06:18:13;;;;;;;;;;;17.10;57.50;;;;;;10170898;28;94201;-69
2023/04/06 06:23:15;;;;;;;;;;;17.10;57.00;;;;;;10167658;28;93505;-67
2023/04/06 06:28:17;;;;;;;;;;;17.10;56.60;;;;;;10169075;28;93655;-67
2023/04/06 06:33:19;;;;;;;;;;;17.10;56.30;;;;;;10169006;28;93811;-66
2023/04/06 06:38:21;;;;;;;;;;;17.00;56.10;;;;;;10150733;28;93532;-67
2023/04/06 06:43:24;;;;;;;;;;;17.00;56.20;;;;;;10167577;28;94679;-67
2023/04/06 06:48:26;;;;;;;;;;;16.90;56.10;;;;;;10165266;28;94054;-66
2023/04/06 06:53:27;;;;;;;;;;;16.90;56.10;;;;;;10166736;28;96556;-66
2023/04/06 06:58:29;;;;;;;;;;;16.90;56.10;;;;;;10167072;28;93940;-67
2023/04/06 07:03:31;;;;;;;;;;;16.80;56.10;;;;;;10149648;28;93495;-67
2023/04/06 07:08:33;;;;;;;;;;;16.80;56.00;;;;;;10149999;28;92874;-67
2023/04/06 07:13:35;;;;;;;;;;;16.80;56.00;;;;;;10166560;28;94144;-67
2023/04/06 07:18:36;;;;;;;;;;;16.80;56.00;;;;;;10166936;28;94507;-67
2023/04/06 07:23:38;;;;;;;;;;;16.80;55.90;;;;;;10150516;28;93277;-67
2023/04/06 07:28:40;;;;;;;;;;;16.80;55.80;;;;;;10168045;28;92796;-67
2023/04/06 07:33:42;;;;;;;;;;;16.80;55.80;;;;;;10170387;28;94042;-67
2023/04/06 07:38:45;;;;;;;;;;;16.70;55.70;;;;;;10174828;28;94446;-66
2023/04/06 07:43:47;;;;;;;;;;;16.70;55.70;;;;;;10153501;28;96880;-67
2023/04/06 07:48:50;;;;;;;;;;;16.70;55.70;;;;;;10172551;28;93467;-67
2023/04/06 07:53:51;;;;;;;;;;;16.70;55.70;;;;;;10173054;28;94410;-67
2023/04/06 07:58:56;;;;;;;;;;;16.70;55.60;;;;;;10173626;28;92859;-67
2023/04/06 08:03:58;;;;;;;;;;;16.70;55.40;;;;;;10173462;28;94598;-67
2023/04/06 08:09:00;;;;;;;;;;;16.70;55.90;;;;;;10172961;28;93807;-66
2023/04/06 08:14:02;;;;;;;;;;;16.70;55.70;;;;;;10155718;28;92518;-67
2023/04/06 08:19:04;;;;;;;;;;;16.70;55.60;;;;;;10156323;28;93773;-66
2023/04/06 08:24:06;;;;;;;;;;;16.70;55.70;;;;;;10171981;28;93444;-67
2023/04/06 08:29:08;;;;;;;;;;;16.70;55.60;;;;;;10172405;28;93960;-67
2023/04/06 08:34:10;;;;;;;;;;;16.70;55.60;;;;;;10155313;28;96948;-67
2023/04/06 08:39:14;;;;;;;;;;;16.60;55.80;;;;;;10158567;28;93703;-67
2023/04/06 08:44:16;;;;;;;;;;;16.60;55.40;;;;;;10171879;28;92802;-67
2023/04/06 08:49:19;;;;;;;;;;;16.60;55.50;;;;;;10171253;28;93991;-67
2023/04/06 08:54:20;;;;;;;;;;;16.60;55.60;;;;;;10139571;28;94446;-66
2023/04/06 08:59:23;;;;;;;;;;;16.60;55.60;;;;;;10171271;28;93918;-67
2023/04/06 09:04:26;;;;;;;;;;;16.60;55.60;;;;;;10170730;28;93614;-67
2023/04/06 09:09:28;;;;;;;;;;;16.60;55.50;;;;;;10171253;28;92311;-66
2023/04/06 09:14:37;;;;;;;;;;;16.60;55.30;;;;;;10153844;28;93669;-67
2023/04/06 09:19:49;;;;;;;;;;;16.60;55.20;;;;;;10170769;28;93471;-67
2023/04/06 09:24:51;;;;;;;;;;;16.70;55.10;;;;;;10150688;28;96267;-67
2023/04/06 09:30:02;;;;;;;;;;;16.70;55.00;;;;;;10171545;28;93307;-66
2023/04/06 09:35:07;;;;;;;;;;;16.70;55.20;;;;;;10169426;28;93476;-66
2023/04/06 09:40:10;;;;;;;;;;;16.70;55.20;;;;;;10170902;28;93683;-66
2023/04/06 09:45:11;;;;;;;;;;;16.70;56.00;;;;;;10170577;28;93944;-67
2023/04/06 09:50:13;;;;;;;;;;;16.70;55.20;;;;;;10169922;28;94496;-66
2023/04/06 09:55:33;;;;;;;;;;;16.70;55.30;;;;;;10169678;28;93020;-67
2023/04/06 10:00:42;;;;;;;;;;;16.70;55.30;;;;;;10169908;28;93096;-67
2023/04/06 10:05:46;;;;;;;;;;;16.70;55.40;;;;;;10170953;28;94425;-67
2023/04/06 10:10:50;;;;;;;;;;;16.70;55.40;;;;;;10169220;28;93662;-67
2023/04/06 10:15:51;;;;;;;;;;;16.80;55.40;;;;;;10150662;28;95797;-66
2023/04/06 10:21:00;;;;;;;;;;;16.80;55.40;;;;;;10170450;28;93419;-66
2023/04/06 10:26:02;;;;;;;;;;;16.70;55.30;;;;;;10170930;28;94475;-68
2023/04/06 10:31:05;;;;;;;;;;;16.80;55.20;;;;;;10169234;28;94622;-67
2023/04/06 10:36:10;;;;;;;;;;;16.80;55.20;;;;;;10169704;28;93506;-66
2023/04/06 10:41:12;;;;;;;;;;;16.80;55.30;;;;;;10168781;28;93470;-67
2023/04/06 10:46:24;;;;;;;;;;;16.80;55.40;;;;;;10168656;28;94742;-66
2023/04/06 10:51:27;;;;;;;;;;;16.70;55.50;;;;;;10169930;28;92725;-65
2023/04/06 10:56:29;;;;;;;;;;;16.70;55.30;;;;;;10166825;28;94450;-66
2023/04/06 11:01:31;;;;;;;;;;;16.70;55.60;;;;;;10167948;28;94233;-66
2023/04/06 11:06:33;;;;;;;;;;;16.70;55.70;;;;;;10166553;28;96856;-66
2023/04/06 11:11:38;;;;;;;;;;;16.70;55.60;;;;;;10167019;28;93868;-66
2023/04/06 11:16:40;;;;;;;;;;;16.70;55.50;;;;;;10151165;28;93645;-65
2023/04/06 11:21:47;;;;;;;;;;;16.70;55.60;;;;;;10167965;28;93941;-66
2023/04/06 11:26:50;;;;;;;;;;;16.70;55.70;;;;;;10168267;28;94244;-66
2023/04/06 11:31:54;;;;;;;;;;;16.70;55.60;;;;;;10151445;28;94502;-66
2023/04/06 11:36:56;;;;;;;;;;;16.70;55.30;;;;;;10167335;28;94447;-66
2023/04/06 11:41:59;;;;;;;;;;;16.70;55.40;;;;;;10168486;28;93260;-67
2023/04/06 11:47:02;;;;;;;;;;;16.70;55.30;;;;;;10149663;28;94167;-67
2023/04/06 11:52:13;;;;;;;;;;;16.70;55.60;;;;;;10150379;28;93526;-67
2023/04/06 11:57:16;;;;;;;;;;;16.60;55.40;;;;;;10146458;28;95909;-66
2023/04/06 12:02:18;;;;;;;;;;;16.70;55.40;;;;;;10167984;28;96089;-67
2023/04/06 12:07:20;;;;;;;;;;;16.70;55.50;;;;;;10149559;28;93685;-66
2023/04/06 12:12:21;;;;;;;;;;;16.60;55.50;;;;;;10165680;28;94531;-66
2023/04/06 12:17:23;;;;;;;;;;;16.60;55.60;;;;;;10166394;28;93232;-67
2023/04/06 12:22:25;;;;;;;;;;;16.60;55.70;;;;;;10171578;28;93842;-67
2023/04/06 12:27:27;;;;;;;;;;;16.60;55.70;;;;;;10172941;28;94351;-67
2023/04/06 12:32:29;;;;;;;;;;;16.60;55.80;;;;;;10173845;28;92660;-66
2023/04/06 12:37:31;;;;;;;;;;;16.60;55.90;;;;;;10172918;28;94529;-66
2023/04/06 12:42:32;;;;;;;;;;;16.60;56.00;;;;;;10172102;28;94141;-67
2023/04/06 12:47:35;;;;;;;;;;;16.60;56.00;;;;;;10170720;28;97097;-67
2023/04/06 12:52:37;;;;;;;;;;;16.60;56.20;;;;;;10171332;28;93440;-68
2023/04/06 12:57:40;;;;;;;;;;;16.50;56.20;;;;;;10172678;28;94474;-67
2023/04/06 13:02:46;;;;;;;;;;;16.50;56.30;;;;;;10172532;28;94068;-67
2023/04/06 13:07:52;;;;;;;;;;;16.50;56.40;;;;;;10171366;28;94649;-67
2023/04/06 13:12:54;;;;;;;;;;;16.50;56.40;;;;;;10154827;28;93489;-66
2023/04/06 13:17:56;;;;;;;;;;;16.50;56.60;;;;;;10170693;28;93402;-67
2023/04/06 13:22:57;;;;;;;;;;;16.50;56.50;;;;;;10172155;28;93505;-67
2023/04/06 13:27:59;;;;;;;;;;;16.50;56.60;;;;;;10153753;28;93580;-67
2023/04/06 13:33:01;;;;;;;;;;;16.50;56.60;;;;;;10170207;28;94420;-67
2023/04/06 13:38:04;;;;;;;;;;;16.50;56.70;;;;;;10168781;28;96931;-67
2023/04/06 13:43:06;;;;;;;;;;;16.50;56.80;;;;;;10170444;28;93551;-67
2023/04/06 13:48:07;;;;;;;;;;;16.50;56.80;;;;;;10170519;28;94508;-67
2023/04/06 13:53:09;;;;;;;;;;;16.50;56.80;;;;;;10170364;28;93545;-66
2023/04/06 13:58:11;;;;;;;;;;;16.50;56.80;;;;;;10170040;28;94436;-67
2023/04/06 14:03:13;;;;;;;;;;;16.50;56.90;;;;;;10169353;28;94453;-67
2023/04/06 14:08:15;;;;;;;;;;;16.50;56.90;;;;;;10170002;28;93459;-67
2023/04/06 14:13:17;;;;;;;;;;;16.50;58.00;;;;;;10170463;28;92844;-66
2023/04/06 14:18:19;;;;;;;;;;;16.50;57.40;;;;;;10168879;28;93528;-66
2023/04/06 14:23:21;;;;;;;;;;;16.50;57.40;;;;;;10151906;28;93279;-66
2023/04/06 14:28:23;;;;;;;;;;;16.50;57.50;;;;;;10149327;28;95051;-67
2023/04/06 14:33:25;;;;;;;;;;;16.50;57.60;;;;;;10167322;28;93463;-66
2023/04/06 14:38:26;;;;;;;;;;;16.50;57.70;;;;;;10168954;28;92838;-66
2023/04/06 14:43:28;;;;;;;;;;;16.50;57.80;;;;;;10167855;28;97020;-68
2023/04/06 14:48:30;;;;;;;;;;;16.50;57.70;;;;;;10167686;28;93657;-67
2023/04/06 14:53:32;;;;;;;;;;;16.50;57.60;;;;;;10151367;28;94196;-66
2023/04/06 14:58:33;;;;;;;;;;;16.40;57.60;;;;;;10168449;28;93460;-67
2023/04/06 15:03:35;;;;;;;;;;;16.40;57.70;;;;;;10151549;28;93200;-67
2023/04/06 15:08:37;;;;;;;;;;;16.40;57.60;;;;;;10168348;28;94271;-67
2023/04/06 15:13:39;;;;;;;;;;;16.40;57.70;;;;;;10168606;28;94435;-67
2023/04/06 15:18:41;;;;;;;;;;;16.40;57.90;;;;;;10166062;28;96888;-66
2023/04/06 15:23:45;;;;;;;;;;;16.50;57.90;;;;;;10151730;28;94876;-66
2023/04/06 15:28:47;;;;;;;;;;;16.70;57.70;;;;;;10167367;28;93460;-67
2023/04/06 15:33:49;;;;;;;;;;;17.00;57.50;;;;;;10166204;28;94008;-67
2023/04/06 15:38:51;;;;;;;;;;;17.20;57.20;;;;;;10167421;28;94117;-66
2023/04/06 15:43:53;;;;;;;;;;;17.30;56.90;;;;;;10150209;28;94188;-66
2023/04/06 15:48:55;;;;;;;;;;;17.40;56.70;;;;;;10150051;28;94305;-66
2023/04/06 15:53:57;;;;;;;;;;;17.50;56.70;;;;;;10168406;28;92870;-66
2023/04/06 15:58:59;;;;;;;;;;;17.60;56.70;;;;;;10173568;28;92988;-66
2023/04/06 16:04:01;;;;;;;;;;;17.70;56.90;;;;;;10174259;28;94229;-66
2023/04/06 16:09:03;;;;;;;;;;;17.70;57.10;;;;;;10154130;28;96946;-67
2023/04/06 16:14:04;;;;;;;;;;;17.80;60.10;;;;;;10174220;28;94244;-68
2023/04/06 16:19:06;;;;;;;;;;;17.80;61.80;;;;;;10173944;28;93482;-67
2023/04/06 16:24:08;;;;;;;;;;;18.00;66.80;;;;;;10171949;28;93498;-67
2023/04/06 16:29:09;;;;;;;;;;;18.30;65.20;;;;;;10154019;28;94658;-68
2023/04/06 16:34:12;;;;;;;;;;;18.50;64.20;;;;;;10172204;28;93508;-68
2023/04/06 16:39:15;;;;;;;;;;;18.60;63.10;;;;;;10154404;28;94087;-68
2023/04/06 16:44:17;;;;;;;;;;;18.60;62.40;;;;;;10173295;28;92802;-68
2023/04/06 16:49:19;;;;;;;;;;;18.60;62.10;;;;;;10171434;28;93488;-66
2023/04/06 16:54:21;;;;;;;;;;;18.50;62.40;;;;;;10172222;28;94446;-66
2023/04/06 16:59:22;;;;;;;;;;;18.40;61.90;;;;;;10169800;28;96739;-66
2023/04/06 17:04:24;;;;;;;;;;;18.30;61.80;;;;;;10154577;28;92703;-66
2023/04/06 17:09:26;;;;;;;;;;;18.20;61.60;;;;;;10170131;28;93609;-66
2023/04/06 17:14:28;;;;;;;;;;;18.10;61.60;;;;;;10171796;28;94469;-65
2023/04/06 17:19:30;;;;;;;;;;;18.00;61.70;;;;;;10153173;28;93347;-66
2023/04/06 17:24:32;;;;;;;;;;;18.00;61.80;;;;;;10169322;28;93515;-65
2023/04/06 17:29:35;;;;;;;;;;;18.00;62.00;;;;;;10170274;28;92651;-66
2023/04/06 17:34:36;;;;;;;;;;;18.10;61.80;;;;;;10153365;28;92841;-65
2023/04/06 17:39:38;;;;;;;;;;;18.20;61.60;;;;;;10153808;28;94450;-67
2023/04/06 17:44:40;;;;;;;;;;;18.20;61.40;;;;;;10170236;28;93446;-66
2023/04/06 17:49:42;;;;;;;;;;;18.20;61.30;;;;;;10149294;28;95795;-66
2023/04/06 17:54:45;;;;;;;;;;;18.20;61.30;;;;;;10170971;28;92635;-67
2023/04/06 17:59:47;;;;;;;;;;;18.10;61.20;;;;;;10169619;28;93644;-66
2023/04/06 18:04:52;;;;;;;;;;;18.10;61.30;;;;;;10169488;28;93220;-67
2023/04/06 18:09:54;;;;;;;;;;;18.00;62.10;;;;;;10168831;28;94334;-66
2023/04/06 18:14:55;;;;;;;;;;;18.00;61.50;;;;;;10168568;28;93638;-66
2023/04/06 18:19:57;;;;;;;;;;;18.00;61.70;;;;;;10151182;28;94341;-66
2023/04/06 18:25:00;;;;;;;;;;;18.10;61.60;;;;;;10152525;28;94194;-66
2023/04/06 18:30:03;;;;;;;;;;;18.10;61.40;;;;;;10158189;28;94798;-67
2023/04/06 18:35:08;;;;;;;;;;;18.20;61.40;;;;;;10150017;28;94437;-67
2023/04/06 18:40:28;;;;;;;;;;;18.20;61.40;;;;;;10148496;28;96870;-67
2023/04/06 18:45:34;;;;;;;;;;;18.10;61.40;;;;;;10168585;28;94545;-66
2023/04/06 18:50:36;;;;;;;;;;;18.10;61.50;;;;;;10167529;28;92558;-66
2023/04/06 18:55:37;;;;;;;;;;;18.00;61.50;;;;;;10150574;28;94498;-67
2023/04/06 19:00:40;;;;;;;;;;;18.00;61.50;;;;;;10167866;28;93234;-67
2023/04/06 19:05:42;;;;;;;;;;;17.90;61.60;;;;;;10167968;28;92805;-66
2023/04/06 19:10:44;;;;;;;;;;;17.80;61.50;;;;;;10166414;28;93886;-66
2023/04/06 19:15:46;;;;;;;;;;;17.80;61.80;;;;;;10167892;28;92363;-66
2023/04/06 19:20:47;;;;;;;;;;;17.80;61.90;;;;;;10166772;28;93435;-67
2023/04/06 19:25:50;;;;;;;;;;;17.90;61.90;;;;;;10166260;28;93329;-66
2023/04/06 19:30:54;;;;;;;;;;;18.00;61.70;;;;;;10146746;28;96141;-67
2023/04/06 19:35:56;;;;;;;;;;;18.10;61.40;;;;;;10165997;28;93452;-67
2023/04/06 19:40:58;;;;;;;;;;;18.10;61.30;;;;;;10166809;28;94439;-66
2023/04/06 19:46:00;;;;;;;;;;;18.10;61.30;;;;;;10148114;28;93606;-67
2023/04/06 19:51:01;;;;;;;;;;;18.10;61.30;;;;;;10165509;28;93555;-66
2023/04/06 19:56:03;;;;;;;;;;;18.00;61.30;;;;;;10148505;28;93254;-68
2023/04/06 20:01:05;;;;;;;;;;;18.00;61.90;;;;;;10165587;28;93462;-67
2023/04/06 20:06:07;;;;;;;;;;;17.90;61.50;;;;;;10149410;28;92707;-66
2023/04/06 20:11:09;;;;;;;;;;;17.90;61.60;;;;;;10166191;28;94462;-67
2023/04/06 20:16:11;;;;;;;;;;;17.80;61.70;;;;;;10166047;28;93728;-66
2023/04/06 20:21:13;;;;;;;;;;;17.80;61.80;;;;;;10162969;28;95889;-67
2023/04/06 20:26:14;;;;;;;;;;;17.70;61.90;;;;;;10165511;28;92537;-66
2023/04/06 20:31:16;;;;;;;;;;;17.70;62.00;;;;;;10165374;28;94282;-67
2023/04/06 20:36:18;;;;;;;;;;;17.60;62.20;;;;;;10165154;28;94361;-67
2023/04/06 20:41:22;;;;;;;;;;;17.60;62.20;;;;;;10166853;28;94522;-67
2023/04/06 20:46:24;;;;;;;;;;;17.50;62.20;;;;;;10153109;28;93665;-66
2023/04/06 20:51:26;;;;;;;;;;;17.40;62.20;;;;;;10170870;28;92990;-67
2023/04/06 20:56:28;;;;;;;;;;;17.50;62.40;;;;;;10171615;28;92785;-68
2023/04/06 21:01:30;;;;;;;;;;;17.40;62.30;;;;;;10154586;28;93600;-67
2023/04/06 21:06:32;;;;;;;;;;;17.40;62.30;;;;;;10172579;28;93374;-67
2023/04/06 21:11:34;;;;;;;;;;;17.40;62.20;;;;;;10171398;28;95820;-67
2023/04/06 21:16:36;;;;;;;;;;;17.30;62.00;;;;;;10172696;28;94462;-66
2023/04/06 21:21:38;;;;;;;;;;;17.30;62.10;;;;;;10173401;28;93599;-66
2023/04/06 21:26:40;;;;;;;;;;;17.30;62.20;;;;;;10172768;28;93420;-66
2023/04/06 21:31:41;;;;;;;;;;;17.20;62.30;;;;;;10172582;28;93897;-66
2023/04/06 21:36:43;;;;;;;;;;;17.20;62.40;;;;;;10172199;28;93850;-66
2023/04/06 21:41:45;;;;;;;;;;;17.20;62.50;;;;;;10171429;28;93561;-68
2023/04/06 21:46:47;;;;;;;;;;;17.20;62.70;;;;;;10172493;28;92828;-68
2023/04/06 21:51:49;;;;;;;;;;;17.20;62.50;;;;;;10154055;28;94406;-69
2023/04/06 21:56:51;;;;;;;;;;;17.10;62.40;;;;;;10152395;28;93445;-68
2023/04/06 22:01:52;;;;;;;;;;;17.10;62.40;;;;;;10150804;28;95878;-68
2023/04/06 22:06:57;;;;;;;;;;;17.00;62.30;;;;;;10170377;28;94451;-68
2023/04/06 22:11:59;;;;;;;;;;;17.10;62.40;;;;;;10170064;28;94449;-68
2023/04/06 22:17:01;;;;;;;;;;;17.00;62.30;;;;;;10169146;28;94029;-68
2023/04/06 22:22:02;;;;;;;;;;;17.00;62.30;;;;;;10169804;28;94493;-68
2023/04/06 22:27:04;;;;;;;;;;;17.00;62.30;;;;;;10170491;28;94260;-67
2023/04/06 22:32:06;;;;;;;;;;;17.00;62.20;;;;;;10151397;28;94441;-67
2023/04/06 22:37:08;;;;;;;;;;;17.00;62.20;;;;;;10169323;28;93282;-66
2023/04/06 22:42:09;;;;;;;;;;;17.00;62.10;;;;;;10168697;28;93606;-66
2023/04/06 22:47:11;;;;;;;;;;;16.90;62.10;;;;;;10167387;28;93778;-65
2023/04/06 22:52:13;;;;;;;;;;;16.90;62.10;;;;;;10166798;28;97000;-66
2023/04/06 22:57:15;;;;;;;;;;;16.90;62.00;;;;;;10168286;28;94625;-66
2023/04/06 23:02:17;;;;;;;;;;;16.90;62.00;;;;;;10168057;28;93650;-66
2023/04/06 23:07:18;;;;;;;;;;;16.90;62.00;;;;;;10167350;28;92919;-66
2023/04/06 23:12:22;;;;;;;;;;;16.90;62.00;;;;;;10167282;28;94015;-66
2023/04/06 23:17:24;;;;;;;;;;;16.90;61.90;;;;;;10168701;28;94481;-66
2023/04/06 23:22:26;;;;;;;;;;;16.90;62.00;;;;;;10167649;28;93486;-66
2023/04/06 23:27:28;;;;;;;;;;;16.80;61.80;;;;;;10169001;28;94090;-66
2023/04/06 23:32:30;;;;;;;;;;;16.80;61.80;;;;;;10168613;28;93256;-64
2023/04/06 23:37:32;;;;;;;;;;;16.80;61.80;;;;;;10168020;28;93635;-66
2023/04/06 23:42:34;;;;;;;;;;;16.80;61.80;;;;;;10165283;28;95900;-65
2023/04/06 23:47:36;;;;;;;;;;;16.80;61.80;;;;;;10150844;28;92864;-65
2023/04/06 23:52:38;;;;;;;;;;;16.80;61.90;;;;;;10166547;28;93406;-68
2023/04/06 23:57:39;;;;;;;;;;;16.80;61.80;;;;;;10167622;28;92634;-68
